Time;durP1;ratioP1;P1;durP2;ratioP2;P2;SDS_P1;SDS_P2;PMS_P1;PMS_P2;Temp;Humidity;BMP_temperature;BMP_pressure;BME280_temperature;BME280_humidity;BME280_pressure;Samples;Min_cycle;Max_cycle;Signal;HPM_P1;HPM_P2
2021/07/22 00:01:07;;;;;;;9.97;6.43;;;;;;;20.90;48.72;98476.13;8349813;28;20200;-66
2021/07/22 00:05:12;;;;;;;8.10;6.27;;;;;;;20.88;49.34;98476.25;8350560;28;20515;-66
2021/07/22 00:09:15;;;;;;;6.87;6.17;;;;;;;20.79;49.76;98481.41;8350267;28;20236;-65
2021/07/22 00:13:18;;;;;;;11.17;6.63;;;;;;;20.70;49.81;98475.06;8349974;28;20524;-66
2021/07/22 00:17:20;;;;;;;9.27;6.30;;;;;;;20.80;49.80;98475.19;8350748;28;20201;-65
2021/07/22 00:21:26;;;;;;;8.77;6.57;;;;;;;20.73;49.96;98477.44;8350286;28;20208;-66
2021/07/22 00:25:28;;;;;;;10.60;6.50;;;;;;;20.64;50.18;98470.28;8350066;28;20208;-65
2021/07/22 00:29:34;;;;;;;8.03;6.80;;;;;;;20.59;50.10;98478.50;8350196;28;20488;-66
2021/07/22 00:33:37;;;;;;;7.07;6.37;;;;;;;20.55;50.49;98476.25;8349854;28;20235;-65
2021/07/22 00:37:41;;;;;;;7.20;6.37;;;;;;;20.51;50.29;98479.09;8349939;28;20524;-65
2021/07/22 00:41:44;;;;;;;8.47;6.40;;;;;;;20.43;50.21;98473.59;8349863;28;20200;-66
2021/07/22 00:45:47;;;;;;;9.33;6.90;;;;;;;20.39;50.53;98473.94;8349817;28;20208;-65
2021/07/22 00:49:50;;;;;;;10.73;7.20;;;;;;;20.41;50.57;98472.00;8349692;28;20212;-66
2021/07/22 00:53:54;;;;;;;8.13;7.10;;;;;;;20.30;50.75;98473.69;8349525;28;20231;-66
2021/07/22 00:57:56;;;;;;;12.43;6.93;;;;;;;20.22;51.01;98465.56;8349576;28;20488;-66
2021/07/22 01:01:59;;;;;;;11.60;7.50;;;;;;;20.15;51.39;98464.34;8349727;28;20271;-66
2021/07/22 01:06:02;;;;;;;9.37;7.30;;;;;;;20.06;51.51;98471.13;8349055;28;20200;-66
2021/07/22 01:10:08;;;;;;;7.90;7.20;;;;;;;20.01;51.93;98461.91;8349422;28;20574;-65
2021/07/22 01:14:11;;;;;;;9.57;7.47;;;;;;;19.89;51.98;98464.50;8349274;28;20228;-65
2021/07/22 01:18:14;;;;;;;8.20;7.40;;;;;;;19.82;52.21;98465.91;8349353;28;20200;-65
2021/07/22 01:22:18;;;;;;;8.37;6.90;;;;;;;19.84;52.54;98461.38;8349243;28;20208;-65
2021/07/22 01:26:21;;;;;;;8.37;6.73;;;;;;;19.75;52.42;98456.81;8351446;28;20211;-66
2021/07/22 01:30:24;;;;;;;10.50;7.40;;;;;;;19.77;52.79;98456.72;8355529;28;20386;-66
2021/07/22 01:34:27;;;;;;;10.67;8.03;;;;;;;19.66;52.98;98457.47;8355263;28;20231;-66
2021/07/22 01:38:31;;;;;;;8.10;6.77;;;;;;;19.58;53.08;98454.56;8355241;28;20307;-66
2021/07/22 01:42:34;;;;;;;9.93;7.43;;;;;;;19.52;52.91;98443.56;8355150;28;20492;-66
2021/07/22 01:46:37;;;;;;;8.27;7.17;;;;;;;19.48;53.23;98436.84;8355078;28;20258;-66
2021/07/22 01:50:40;;;;;;;8.37;7.07;;;;;;;19.37;53.54;98443.84;8354827;28;20212;-65
2021/07/22 01:54:44;;;;;;;8.40;7.60;;;;;;;19.38;53.35;98435.00;8354682;28;20228;-66
2021/07/22 01:58:47;;;;;;;12.87;7.70;;;;;;;19.27;53.29;98436.63;8354564;28;20207;-66
2021/07/22 02:02:50;;;;;;;8.53;7.70;;;;;;;19.30;53.51;98428.50;8354539;28;20503;-66
2021/07/22 02:06:53;;;;;;;9.67;7.63;;;;;;;19.24;53.99;98428.13;8354484;28;20228;-66
2021/07/22 02:10:57;;;;;;;9.37;7.40;;;;;;;19.19;53.81;98428.47;8354264;28;20224;-65
2021/07/22 02:15:00;;;;;;;10.20;7.80;;;;;;;19.15;53.27;98432.25;8354226;28;20224;-66
2021/07/22 02:19:03;;;;;;;9.90;7.03;;;;;;;19.14;53.60;98430.59;8354028;28;20200;-66
2021/07/22 02:23:05;;;;;;;8.40;7.27;;;;;;;19.07;53.88;98431.97;8353963;28;20201;-67
2021/07/22 02:27:10;;;;;;;11.70;7.63;;;;;;;19.09;53.73;98436.16;8353703;28;20205;-66
2021/07/22 02:31:12;;;;;;;9.00;7.83;;;;;;;19.03;53.51;98430.53;8353881;28;20207;-66
2021/07/22 02:35:15;;;;;;;9.07;7.37;;;;;;;18.95;53.91;98441.56;8353475;28;20424;-66
2021/07/22 02:39:18;;;;;;;8.07;7.37;;;;;;;18.98;53.69;98438.72;8352799;28;20204;-66
2021/07/22 02:43:22;;;;;;;10.60;6.90;;;;;;;18.97;53.94;98431.81;8353266;28;20223;-65
2021/07/22 02:47:26;;;;;;;8.27;7.23;;;;;;;18.97;53.74;98444.09;8353071;28;20204;-66
2021/07/22 02:51:29;;;;;;;9.57;7.80;;;;;;;18.89;54.02;98440.22;8353028;28;20254;-66
2021/07/22 02:55:32;;;;;;;13.77;7.90;;;;;;;18.98;53.65;98438.72;8351934;28;20224;-66
2021/07/22 02:59:36;;;;;;;13.77;7.63;;;;;;;18.89;53.52;98434.97;8352462;28;20197;-66
2021/07/22 03:03:39;;;;;;;8.10;7.30;;;;;;;18.82;54.45;98438.13;8352431;28;20196;-65
2021/07/22 03:07:44;;;;;;;9.30;7.60;;;;;;;18.77;54.22;98433.16;8352503;28;20244;-65
2021/07/22 03:11:47;;;;;;;9.20;7.13;;;;;;;18.72;54.54;98437.91;8352194;28;20196;-65
2021/07/22 03:15:51;;;;;;;8.70;7.80;;;;;;;18.68;54.62;98437.28;8352123;28;20228;-66
2021/07/22 03:19:54;;;;;;;9.63;7.70;;;;;;;18.56;54.22;98440.75;8352092;28;20271;-66
2021/07/22 03:23:56;;;;;;;10.50;7.83;;;;;;;18.60;54.17;98438.75;8352174;28;20200;-65
2021/07/22 03:28:01;;;;;;;10.47;7.33;;;;;;;18.58;54.35;98435.41;8351824;28;20222;-66
2021/07/22 03:32:07;;;;;;;8.70;6.90;;;;;;;18.51;54.23;98438.47;8351741;28;20223;-65
2021/07/22 03:36:09;;;;;;;10.17;7.20;;;;;;;18.52;54.57;98436.69;8351768;28;20406;-65
2021/07/22 03:40:13;;;;;;;10.90;7.53;;;;;;;18.43;54.52;98439.94;8351488;28;20391;-65
2021/07/22 03:44:16;;;;;;;8.20;7.03;;;;;;;18.38;54.71;98445.50;8351496;28;20363;-65
2021/07/22 03:48:21;;;;;;;11.13;7.60;;;;;;;18.21;54.96;98451.91;8350282;28;20208;-65
2021/07/22 03:52:23;;;;;;;10.60;8.00;;;;;;;18.29;54.81;98448.75;8351194;28;20200;-65
2021/07/22 03:56:27;;;;;;;10.37;8.13;;;;;;;18.29;54.95;98449.59;8350449;28;20291;-66
2021/07/22 04:00:31;;;;;;;8.93;8.03;;;;;;;18.30;55.01;98447.81;8350992;28;20200;-66
2021/07/22 04:04:35;;;;;;;9.53;7.90;;;;;;;18.25;54.92;98455.97;8350773;28;20204;-66
2021/07/22 04:08:38;;;;;;;9.07;7.77;;;;;;;18.17;55.05;98447.81;8350413;28;20248;-66
2021/07/22 04:12:41;;;;;;;8.97;8.00;;;;;;;18.26;55.08;98446.31;8350397;28;20421;-66
2021/07/22 04:16:44;;;;;;;11.13;7.30;;;;;;;18.27;54.97;98453.25;8350207;28;20231;-66
2021/07/22 04:20:49;;;;;;;12.73;8.53;;;;;;;18.29;55.28;98456.63;8350357;28;20200;-66
2021/07/22 04:24:52;;;;;;;14.10;8.97;;;;;;;18.27;55.28;98456.72;8350258;28;20212;-66
2021/07/22 04:28:54;;;;;;;10.07;7.67;;;;;;;18.30;55.13;98453.91;8350058;28;20422;-66
2021/07/22 04:32:57;;;;;;;19.20;9.00;;;;;;;18.25;55.23;98461.22;8350122;28;20200;-66
2021/07/22 04:37:04;;;;;;;14.23;8.10;;;;;;;18.35;55.18;98471.91;8350013;28;20224;-66
2021/07/22 04:41:07;;;;;;;12.70;7.90;;;;;;;18.41;55.17;98463.66;8349931;28;20200;-66
2021/07/22 04:45:13;;;;;;;12.77;8.70;;;;;;;18.50;55.14;98467.41;8349847;28;20368;-65
2021/07/22 04:49:15;;;;;;;14.10;7.13;;;;;;;19.10;59.69;98471.97;8349687;28;20208;-67
2021/07/22 04:53:19;;;;;;;12.47;8.20;;;;;;;19.56;56.84;98464.34;8349388;28;20205;-65
2021/07/22 04:57:22;;;;;;;16.33;7.47;;;;;;;19.83;56.47;98475.47;8347091;28;20235;-65
2021/07/22 05:01:25;;;;;;;11.73;8.43;;;;;;;19.92;54.62;98471.34;8359106;28;20215;-65
2021/07/22 05:05:29;;;;;;;12.37;8.67;;;;;;;19.89;53.93;98472.38;8388365;28;20203;-65
2021/07/22 05:09:33;;;;;;;10.50;8.03;;;;;;;20.24;53.57;98468.06;8388047;28;20357;-67
2021/07/22 05:13:39;;;;;;;16.80;9.13;;;;;;;20.33;54.25;98467.34;8388196;28;20203;-67
2021/07/22 05:17:43;;;;;;;15.53;8.80;;;;;;;20.52;52.78;98472.03;8383003;28;20576;-73
2021/07/22 05:21:46;;;;;;;11.47;8.73;;;;;;;20.57;52.25;98475.16;8387856;28;20191;-67
2021/07/22 05:25:50;;;;;;;11.30;8.90;;;;;;;20.53;52.27;98468.47;8384847;28;20203;-67
2021/07/22 05:29:53;;;;;;;14.23;8.97;;;;;;;20.62;52.12;98473.03;8381907;28;20199;-67
2021/07/22 05:33:56;;;;;;;12.90;9.80;;;;;;;20.74;52.04;98478.31;8353804;28;20205;-68
2021/07/22 05:37:58;;;;;;;11.40;9.23;;;;;;;20.91;51.51;98469.91;8354193;28;20425;-67
2021/07/22 05:42:03;;;;;;;16.00;10.63;;;;;;;20.58;52.58;98483.88;8354766;28;20526;-65
2021/07/22 05:46:06;;;;;;;12.83;10.00;;;;;;;20.42;52.67;98479.78;8355034;28;20204;-66
2021/07/22 05:50:09;;;;;;;10.93;9.83;;;;;;;20.35;53.54;98470.69;8354854;28;20204;-65
2021/07/22 05:54:12;;;;;;;13.70;10.80;;;;;;;20.38;53.35;98472.28;8354837;28;20390;-65
2021/07/22 05:58:16;;;;;;;12.37;9.10;;;;;;;20.46;52.21;98469.88;8354442;28;20228;-66
2021/07/22 06:02:19;;;;;;;12.73;9.30;;;;;;;20.22;52.17;98481.31;8354130;28;20192;-66
2021/07/22 06:06:22;;;;;;;12.07;8.27;;;;;;;20.64;51.35;98475.56;8353642;28;20654;-66
2021/07/22 06:10:25;;;;;;;11.90;8.77;;;;;;;20.69;50.77;98474.25;8353667;28;20243;-66
2021/07/22 06:14:29;;;;;;;10.87;7.90;;;;;;;21.18;50.57;98471.31;8350007;28;20260;-66
2021/07/22 06:18:32;;;;;;;10.87;8.83;;;;;;;21.26;50.18;98461.81;8353075;28;20522;-66
2021/07/22 06:22:36;;;;;;;12.43;9.53;;;;;;;20.85;50.51;98468.59;8353025;28;20193;-66
2021/07/22 06:26:38;;;;;;;12.87;8.70;;;;;;;21.03;49.03;98463.66;8352996;28;20200;-66
2021/07/22 06:30:42;;;;;;;13.50;7.97;;;;;;;21.16;49.68;98468.81;8352795;28;20192;-66
2021/07/22 06:34:45;;;;;;;10.37;8.23;;;;;;;21.35;48.94;98475.25;8352847;28;20383;-66
2021/07/22 06:38:48;;;;;;;13.23;9.03;;;;;;;21.28;49.49;98472.25;8352598;28;20232;-68
2021/07/22 06:42:51;;;;;;;14.87;8.07;;;;;;;21.47;49.47;98469.00;8353384;28;20201;-67
2021/07/22 06:46:55;;;;;;;11.53;8.70;;;;;;;21.56;48.42;98465.63;8352730;28;20197;-66
2021/07/22 06:50:58;;;;;;;12.90;8.87;;;;;;;21.79;49.45;98461.09;8353366;28;20497;-66
2021/07/22 06:55:00;;;;;;;11.50;8.30;;;;;;;21.89;48.54;98470.88;8353170;28;20201;-66
2021/07/22 06:59:03;;;;;;;7.93;7.13;;;;;;;22.29;47.44;98473.66;8352628;28;20235;-66
2021/07/22 07:03:09;;;;;;;10.63;7.80;;;;;;;22.46;47.81;98464.31;8351899;28;20392;-66
2021/07/22 07:07:12;;;;;;;15.37;8.07;;;;;;;22.50;46.80;98459.63;8352593;28;20545;-66
2021/07/22 07:11:15;;;;;;;12.70;7.20;;;;;;;22.96;46.12;98458.25;8352081;28;20285;-67
2021/07/22 07:15:18;;;;;;;11.53;7.80;;;;;;;22.77;45.09;98459.88;8351399;28;20197;-67
2021/07/22 07:19:22;;;;;;;8.57;6.97;;;;;;;22.81;45.73;98452.53;8351358;28;20192;-66
2021/07/22 07:23:26;;;;;;;15.83;8.27;;;;;;;23.06;45.24;98459.16;8348762;28;20199;-67
2021/07/22 07:27:30;;;;;;;9.90;7.00;;;;;;;23.41;44.78;98456.03;8351418;28;20269;-66
2021/07/22 07:31:32;;;;;;;12.70;7.23;;;;;;;23.49;43.25;98454.50;8351364;28;20495;-74
2021/07/22 07:35:39;;;;;;;8.17;7.30;;;;;;;23.90;43.23;98448.13;8382969;28;20493;-71
2021/07/22 07:39:42;;;;;;;13.83;8.07;;;;;;;24.08;43.53;98448.22;8384517;28;20213;-71
2021/07/22 07:43:45;;;;;;;13.63;8.40;;;;;;;23.85;42.66;98458.28;8384488;28;20214;-71
2021/07/22 07:47:47;;;;;;;10.93;7.77;;;;;;;24.30;42.10;98449.72;8384064;28;20210;-73
2021/07/22 07:51:51;;;;;;;13.63;7.50;;;;;;;24.59;42.20;98447.00;8384388;28;20211;-74
2021/07/22 07:55:54;;;;;;;14.20;7.20;;;;;;;25.01;41.57;98444.88;8383939;28;20231;-74
2021/07/22 07:59:57;;;;;;;11.03;6.60;;;;;;;25.36;41.17;98449.44;8383986;28;20498;-74
2021/07/22 08:04:00;;;;;;;9.73;7.73;;;;;;;25.33;40.54;98445.25;8383813;28;20207;-74
2021/07/22 08:08:05;;;;;;;10.17;7.70;;;;;;;25.38;40.53;98434.22;8383453;28;20560;-75
2021/07/22 08:12:09;;;;;;;8.87;7.00;;;;;;;25.87;39.88;98437.28;8383916;28;20208;-73
2021/07/22 08:16:16;;;;;;;11.77;7.00;;;;;;;25.96;39.65;98435.56;8383414;28;20243;-74
2021/07/22 08:20:19;;;;;;;13.13;7.37;;;;;;;25.87;39.22;98437.28;8383638;28;20253;-73
2021/07/22 08:24:23;;;;;;;10.03;7.33;;;;;;;26.29;39.23;98427.81;8383267;28;20217;-73
2021/07/22 08:28:27;;;;;;;11.07;7.70;;;;;;;26.29;39.30;98423.34;8383329;28;20500;-73
2021/07/22 08:32:30;;;;;;;12.30;8.27;;;;;;;26.46;38.45;98428.72;8383140;28;20217;-75
2021/07/22 08:36:33;;;;;;;10.90;7.57;;;;;;;26.84;38.34;98419.47;8382531;28;20220;-72
2021/07/22 08:40:40;;;;;;;13.83;7.73;;;;;;;26.95;37.30;98415.69;8382867;28;20210;-72
2021/07/22 08:44:47;;;;;;;10.87;8.23;;;;;;;26.88;36.94;98412.00;8382813;28;20198;-72
2021/07/22 08:48:59;;;;;;;8.93;7.97;;;;;;;26.64;37.31;98405.63;8382782;28;20425;-72
2021/07/22 08:53:11;;;;;;;9.10;7.57;;;;;;;27.04;37.70;98404.09;8382863;28;20205;-73
2021/07/22 08:57:18;;;;;;;9.03;6.97;;;;;;;27.58;37.56;98406.34;8382583;28;20224;-70
2021/07/22 09:01:22;;;;;;;9.57;8.10;;;;;;;27.71;35.90;98405.88;8382746;28;20520;-69
2021/07/22 09:05:29;;;;;;;11.43;8.17;;;;;;;27.83;37.44;98409.84;8382614;28;20202;-70
2021/07/22 09:09:35;;;;;;;12.47;7.80;;;;;;;28.14;35.69;98409.19;8382443;28;20257;-69
2021/07/22 09:13:40;;;;;;;11.37;7.40;;;;;;;28.38;36.56;98402.13;8382773;28;20581;-69
2021/07/22 09:17:43;;;;;;;8.57;7.60;;;;;;;27.99;35.05;98398.38;8382483;28;20542;-70
2021/07/22 09:21:46;;;;;;;10.20;7.23;;;;;;;28.33;35.44;98394.66;8382128;28;20202;-70
2021/07/22 09:25:50;;;;;;;11.53;8.20;;;;;;;27.94;35.08;98399.91;8382459;28;20367;-70
2021/07/22 09:29:58;;;;;;;12.67;8.23;;;;;;;28.26;35.00;98399.81;8371393;28;20407;-71
2021/07/22 09:34:02;;;;;;;8.80;7.97;;;;;;;27.85;35.67;98399.88;8345848;28;20396;-71
2021/07/22 09:38:11;;;;;;;9.77;7.40;;;;;;;28.62;35.20;98393.25;8347895;28;20222;-71
2021/07/22 09:42:16;;;;;;;10.80;7.67;;;;;;;28.52;34.91;98388.13;8347886;28;20199;-69
2021/07/22 09:46:40;;;;;;;9.60;7.07;;;;;;;29.00;34.71;98393.41;8348212;28;20193;-71
2021/07/22 09:50:44;;;;;;;11.57;8.07;;;;;;;28.57;32.76;98388.44;8352045;28;20204;-71
2021/07/22 09:54:48;;;;;;;10.80;7.63;;;;;;;28.16;33.43;98388.53;8353929;28;20206;-70
2021/07/22 09:58:51;;;;;;;13.57;7.83;;;;;;;27.60;33.86;98395.56;8353753;28;20229;-70
2021/07/22 10:02:56;;;;;;;9.73;6.70;;;;;;;28.80;34.10;98393.81;8353760;28;20193;-70
2021/07/22 10:07:00;;;;;;;10.90;7.90;;;;;;;28.46;33.16;98386.97;8350597;28;20235;-70
2021/07/22 10:11:05;;;;;;;9.57;7.23;;;;;;;28.47;31.33;98393.94;8353049;28;20263;-71
2021/07/22 10:15:10;;;;;;;7.27;6.57;;;;;;;29.58;31.69;98391.19;8351509;28;20273;-72
2021/07/22 10:19:14;;;;;;;9.90;7.03;;;;;;;29.56;32.60;98386.03;8353120;28;20223;-71
2021/07/22 10:23:17;;;;;;;8.40;6.80;;;;;;;30.03;31.85;98373.47;8353226;28;20212;-70
2021/07/22 10:27:21;;;;;;;11.33;7.27;;;;;;;29.97;31.51;98374.19;8353221;28;20207;-68
2021/07/22 10:31:24;;;;;;;13.43;6.97;;;;;;;30.23;31.16;98367.56;8354007;28;20203;-69
2021/07/22 10:35:31;;;;;;;11.40;6.80;;;;;;;30.25;30.85;98365.53;8353629;28;20210;-69
2021/07/22 10:39:58;;;;;;;8.63;6.30;;;;;;;30.64;29.80;98351.91;8353631;28;20230;-69
2021/07/22 10:44:01;;;;;;;7.77;6.50;;;;;;;30.67;29.46;98348.84;8352770;28;20206;-66
2021/07/22 10:48:06;;;;;;;8.33;5.80;;;;;;;30.78;28.63;98351.03;8352321;28;20402;-67
2021/07/22 10:52:12;;;;;;;7.60;6.20;;;;;;;31.00;29.88;98340.41;8350192;28;20210;-67
2021/07/22 10:56:20;;;;;;;8.03;6.13;;;;;;;30.90;27.96;98338.06;8353025;28;20203;-65
2021/07/22 11:00:41;;;;;;;7.23;6.23;;;;;;;30.89;29.84;98340.88;8352102;28;20403;-66
2021/07/22 11:04:47;;;;;;;8.53;6.10;;;;;;;31.11;28.00;98334.56;8352374;28;20205;-66
2021/07/22 11:09:07;;;;;;;9.30;5.03;;;;;;;31.21;27.79;98336.09;8351803;28;20252;-66
2021/07/22 11:13:41;;;;;;;8.70;5.93;;;;;;;31.02;26.06;98334.88;8352562;28;20524;-66
2021/07/22 11:17:46;;;;;;;6.27;5.67;;;;;;;31.36;27.08;98332.31;8352276;28;20239;-66
2021/07/22 11:21:50;;;;;;;6.97;5.30;;;;;;;31.46;26.83;98331.16;8352534;28;20511;-66
2021/07/22 11:25:54;;;;;;;7.87;5.67;;;;;;;31.09;25.49;98333.09;8352074;28;20201;-67
2021/07/22 11:30:09;;;;;;;8.00;5.40;;;;;;;30.58;23.80;98317.94;8351950;28;20211;-66
2021/07/22 11:34:12;;;;;;;5.33;4.83;;;;;;;30.87;25.93;98317.00;8351707;28;20201;-66
2021/07/22 11:38:15;;;;;;;11.53;5.87;;;;;;;30.60;25.62;98323.91;8350916;28;20562;-67
2021/07/22 11:42:21;;;;;;;8.23;5.43;;;;;;;31.09;25.22;98319.72;8350349;28;20208;-66
2021/07/22 11:46:45;;;;;;;9.43;5.37;;;;;;;31.18;25.19;98310.53;8350156;28;20196;-66
2021/07/22 11:50:58;;;;;;;6.27;5.47;;;;;;;30.92;25.76;98311.09;8343129;28;20195;-66
2021/07/22 11:55:05;;;;;;;6.10;5.20;;;;;;;31.57;26.68;98309.28;8347911;28;20196;-67
2021/07/22 11:59:11;;;;;;;6.37;5.37;;;;;;;31.58;27.03;98305.56;8350515;28;20224;-67
2021/07/22 12:03:14;;;;;;;6.33;5.33;;;;;;;31.37;26.56;98307.22;8350822;28;20203;-69
2021/07/22 12:07:26;;;;;;;9.67;5.43;;;;;;;31.60;26.09;98305.38;8350816;28;20233;-69
2021/07/22 12:11:43;;;;;;;8.90;5.40;;;;;;;30.72;26.66;98295.66;8349821;28;20208;-69
2021/07/22 12:15:48;;;;;;;8.00;5.80;;;;;;;30.88;27.99;98285.75;8350842;28;20396;-69
2021/07/22 12:19:51;;;;;;;7.00;5.73;;;;;;;31.18;27.34;98283.78;8350562;28;20526;-69
2021/07/22 12:23:54;;;;;;;8.00;5.47;;;;;;;31.27;27.00;98279.16;8350266;28;20209;-69
2021/07/22 12:27:57;;;;;;;8.50;5.23;;;;;;;31.44;26.83;98279.69;8350346;28;20386;-69
2021/07/22 12:32:09;;;;;;;6.67;5.33;;;;;;;30.89;25.80;98279.41;8350159;28;20207;-70
2021/07/22 12:36:22;;;;;;;6.93;5.60;;;;;;;31.30;25.90;98274.25;8350140;28;20203;-69
2021/07/22 12:40:38;;;;;;;8.30;5.23;;;;;;;31.59;26.87;98268.91;8349965;28;20239;-69
2021/07/22 12:44:44;;;;;;;6.33;5.30;;;;;;;31.54;27.00;98262.28;8350072;28;20317;-67
2021/07/22 12:48:49;;;;;;;7.13;5.70;;;;;;;31.53;27.29;98257.97;8349910;28;20209;-67
2021/07/22 12:52:51;;;;;;;7.60;5.10;;;;;;;31.69;26.40;98254.16;8349690;28;20202;-66
2021/07/22 12:56:54;;;;;;;7.70;5.47;;;;;;;31.64;26.56;98253.91;8349977;28;20500;-67
2021/07/22 13:01:01;;;;;;;7.73;5.43;;;;;;;31.59;25.30;98258.19;8349524;28;20531;-66
2021/07/22 13:05:08;;;;;;;9.40;5.20;;;;;;;31.43;25.56;98244.06;8348959;28;20193;-67
2021/07/22 13:09:11;;;;;;;6.87;5.23;;;;;;;31.02;25.06;98243.97;8346434;28;20238;-66
2021/07/22 13:13:14;;;;;;;5.27;4.70;;;;;;;31.47;26.32;98240.03;8348524;28;20193;-66
2021/07/22 13:17:16;;;;;;;7.10;5.50;;;;;;;31.40;24.83;98243.63;8348513;28;20196;-66
2021/07/22 13:21:23;;;;;;;5.83;5.23;;;;;;;30.80;25.97;98231.38;8351313;28;20236;-66
2021/07/22 13:25:26;;;;;;;6.03;4.90;;;;;;;31.14;25.70;98226.38;8355920;28;20228;-66
2021/07/22 13:29:29;;;;;;;8.43;5.33;;;;;;;31.40;26.08;98222.22;8355622;28;20212;-66
2021/07/22 13:33:34;;;;;;;12.03;5.20;;;;;;;31.49;25.99;98211.22;8355520;28;20206;-66
2021/07/22 13:37:40;;;;;;;5.80;4.90;;;;;;;31.44;26.47;98212.81;8355230;28;20291;-66
2021/07/22 13:41:43;;;;;;;6.70;5.57;;;;;;;31.13;26.20;98205.97;8354624;28;20199;-70
2021/07/22 13:45:45;;;;;;;5.47;4.80;;;;;;;31.13;25.86;98205.97;8355071;28;20193;-70
2021/07/22 13:49:48;;;;;;;7.87;5.37;;;;;;;31.29;26.16;98207.56;8351377;28;20214;-70
2021/07/22 13:53:52;;;;;;;6.93;5.53;;;;;;;31.17;25.93;98204.59;8351817;28;20394;-71
2021/07/22 13:58:04;;;;;;;6.37;4.73;;;;;;;31.32;27.18;98194.63;8354372;28;20338;-69
2021/07/22 14:02:07;;;;;;;6.07;5.27;;;;;;;31.35;26.40;98194.22;8354727;28;20204;-69
2021/07/22 14:06:10;;;;;;;6.73;5.43;;;;;;;30.98;26.25;98180.16;8354533;28;20235;-70
2021/07/22 14:10:14;;;;;;;5.20;4.70;;;;;;;31.24;26.79;98181.38;8354444;28;20231;-70
2021/07/22 14:14:16;;;;;;;5.30;4.80;;;;;;;31.25;26.61;98182.22;8354241;28;20208;-70
2021/07/22 14:18:19;;;;;;;6.40;5.23;;;;;;;31.03;26.94;98176.91;8354121;28;20229;-70
2021/07/22 14:22:22;;;;;;;6.70;5.20;;;;;;;31.08;26.11;98173.66;8354214;28;20203;-70
2021/07/22 14:26:30;;;;;;;6.27;5.40;;;;;;;31.12;26.76;98177.59;8354100;28;20200;-68
2021/07/22 14:30:33;;;;;;;8.50;4.97;;;;;;;30.99;27.38;98178.31;8353784;28;20204;-68
2021/07/22 14:34:36;;;;;;;15.77;5.83;;;;;;;30.84;26.96;98169.53;8353046;28;20213;-68
2021/07/22 14:38:39;;;;;;;5.90;5.30;;;;;;;30.01;26.83;98165.38;8352133;28;20230;-69
2021/07/22 14:42:43;;;;;;;6.20;5.33;;;;;;;30.46;28.37;98167.94;8352527;28;20193;-69
2021/07/22 14:46:45;;;;;;;6.27;4.97;;;;;;;30.37;28.97;98164.59;8352397;28;20203;-68
2021/07/22 14:50:48;;;;;;;6.60;4.93;;;;;;;29.58;29.39;98164.41;8352162;28;20499;-69
2021/07/22 14:54:51;;;;;;;8.53;5.00;;;;;;;29.68;29.00;98162.25;8349521;28;20208;-67
2021/07/22 14:58:55;;;;;;;6.27;4.90;;;;;;;30.13;28.74;98156.91;8351811;28;20225;-69
2021/07/22 15:02:58;;;;;;;8.37;5.37;;;;;;;30.31;28.09;98161.78;8351836;28;20202;-67
2021/07/22 15:07:01;;;;;;;6.10;4.80;;;;;;;30.13;27.61;98152.38;8351705;28;20251;-67
2021/07/22 15:11:04;;;;;;;6.83;5.00;;;;;;;29.62;28.37;98161.19;8351630;28;20195;-67
2021/07/22 15:15:09;;;;;;;5.97;4.63;;;;;;;29.58;27.85;98159.88;8352490;28;20203;-67
2021/07/22 15:19:12;;;;;;;5.33;4.83;;;;;;;29.71;27.12;98148.56;8351362;28;20234;-66
2021/07/22 15:23:15;;;;;;;6.83;4.70;;;;;;;29.91;28.49;98148.00;8348891;28;20196;-67
2021/07/22 15:27:18;;;;;;;8.07;5.17;;;;;;;29.87;27.88;98149.41;8351506;28;20199;-66
2021/07/22 15:31:22;;;;;;;5.80;5.20;;;;;;;29.79;27.83;98148.47;8352020;28;20525;-66
2021/07/22 15:35:25;;;;;;;7.50;5.17;;;;;;;29.79;28.38;98151.16;8351842;28;20207;-66
2021/07/22 15:39:27;;;;;;;8.40;5.10;;;;;;;29.66;26.84;98150.13;8351617;28;20238;-66
2021/07/22 15:43:30;;;;;;;6.83;5.00;;;;;;;29.63;28.20;98152.16;8351468;28;20210;-66
2021/07/22 15:47:34;;;;;;;5.27;4.77;;;;;;;29.28;27.71;98142.22;8351415;28;20202;-67
2021/07/22 15:51:37;;;;;;;5.77;5.07;;;;;;;28.95;28.28;98142.53;8351049;28;20368;-66
2021/07/22 15:55:40;;;;;;;6.50;4.90;;;;;;;29.16;28.79;98136.53;8350433;28;20196;-66
2021/07/22 15:59:43;;;;;;;9.53;5.00;;;;;;;29.25;28.71;98132.75;8351180;28;20383;-66
2021/07/22 16:04:05;;;;;;;8.13;5.40;;;;;;;29.21;29.05;98126.16;8351155;28;20207;-67
2021/07/22 16:08:08;;;;;;;16.87;8.47;;;;;;;29.17;29.40;98124.88;8350932;28;20249;-67
2021/07/22 16:12:11;;;;;;;15.50;6.57;;;;;;;29.10;29.74;98123.91;8350691;28;20494;-68
2021/07/22 16:16:14;;;;;;;23.63;9.53;;;;;;;29.09;29.14;98116.91;8349376;28;20201;-68
2021/07/22 16:20:18;;;;;;;32.57;12.57;;;;;;;29.01;29.69;98115.97;8349574;28;20277;-67
2021/07/22 16:24:21;;;;;;;15.87;7.57;;;;;;;28.96;29.47;98118.38;8349455;28;20205;-68
2021/07/22 16:28:24;;;;;;;66.77;21.33;;;;;;;28.96;30.40;98112.19;8350188;28;20198;-66
2021/07/22 16:32:26;;;;;;;43.67;16.43;;;;;;;28.69;30.07;98108.28;8372547;28;20208;-68
2021/07/22 16:36:30;;;;;;;40.63;15.10;;;;;;;28.60;31.65;98112.88;8383149;28;20209;-69
2021/07/22 16:40:33;;;;;;;16.03;7.73;;;;;;;28.46;31.40;98103.78;8382679;28;20225;-67
2021/07/22 16:44:36;;;;;;;12.07;5.63;;;;;;;28.12;31.64;98106.84;8373284;28;20199;-67
2021/07/22 16:48:39;;;;;;;8.53;4.97;;;;;;;27.95;31.89;98108.78;8346658;28;20194;-67
2021/07/22 16:52:43;;;;;;;12.27;5.07;;;;;;;27.80;32.24;98098.06;8349333;28;20198;-67
2021/07/22 16:56:46;;;;;;;10.47;4.77;;;;;;;27.60;32.62;98092.31;8348764;28;20488;-67
2021/07/22 17:00:49;;;;;;;6.83;5.50;;;;;;;27.53;32.43;98088.69;8349747;28;20412;-67
2021/07/22 17:04:52;;;;;;;23.23;5.80;;;;;;;27.37;33.03;98090.41;8349847;28;20403;-66
2021/07/22 17:08:58;;;;;;;14.43;5.37;;;;;;;27.41;33.21;98086.41;8348866;28;20243;-67
2021/07/22 17:13:01;;;;;;;18.67;5.87;;;;;;;27.36;33.66;98082.59;8349438;28;20205;-66
2021/07/22 17:17:04;;;;;;;10.80;5.23;;;;;;;27.25;33.82;98084.66;8349321;28;20208;-67
2021/07/22 17:21:08;;;;;;;10.27;5.83;;;;;;;27.23;34.42;98078.66;8349176;28;20228;-66
2021/07/22 17:25:12;;;;;;;9.63;5.27;;;;;;;27.18;34.17;98083.63;8348941;28;20204;-66
2021/07/22 17:29:15;;;;;;;12.33;5.37;;;;;;;27.17;34.46;98081.16;8349020;28;20209;-67
2021/07/22 17:33:18;;;;;;;8.13;5.07;;;;;;;27.20;35.22;98078.16;8349268;28;20492;-66
2021/07/22 17:37:21;;;;;;;8.47;5.20;;;;;;;27.17;34.80;98081.16;8349011;28;20208;-67
2021/07/22 17:41:25;;;;;;;9.60;5.57;;;;;;;27.11;35.67;98087.97;8348787;28;20239;-67
2021/07/22 17:45:28;;;;;;;10.83;5.87;;;;;;;26.99;35.34;98081.38;8348720;28;20211;-68
2021/07/22 17:49:31;;;;;;;10.50;5.50;;;;;;;26.94;35.87;98094.34;8349086;28;20205;-67
2021/07/22 17:53:33;;;;;;;24.00;6.73;;;;;;;26.76;36.33;98084.72;8353085;28;20198;-68
2021/07/22 17:57:38;;;;;;;14.03;6.40;;;;;;;26.68;37.86;98085.56;8347555;28;20208;-67
2021/07/22 18:01:41;;;;;;;14.47;5.83;;;;;;;26.72;37.10;98088.72;8363607;28;20230;-67
2021/07/22 18:05:44;;;;;;;8.67;5.50;;;;;;;26.66;36.88;98084.09;8349486;28;20503;-67
2021/07/22 18:09:47;;;;;;;7.00;5.57;;;;;;;26.59;36.76;98083.91;8380133;28;20232;-67
2021/07/22 18:13:51;;;;;;;5.67;4.97;;;;;;;26.56;37.02;98083.38;8387417;28;20201;-66
2021/07/22 18:17:54;;;;;;;6.10;5.33;;;;;;;26.53;37.17;98095.19;8387223;28;20211;-67
2021/07/22 18:22:01;;;;;;;10.53;5.60;;;;;;;26.46;37.64;98091.53;8386849;28;20528;-67
2021/07/22 18:26:05;;;;;;;8.57;5.53;;;;;;;26.41;37.77;98086.72;8386963;28;20206;-67
2021/07/22 18:30:11;;;;;;;9.97;5.40;;;;;;;26.38;37.25;98083.56;8383716;28;20284;-72
2021/07/22 18:34:15;;;;;;;7.50;6.03;;;;;;;26.25;37.69;98087.53;8357742;28;20203;-67
2021/07/22 18:38:20;;;;;;;7.70;5.47;;;;;;;26.14;38.01;98091.34;8370665;28;20197;-67
2021/07/22 18:42:23;;;;;;;11.57;5.67;;;;;;;26.13;38.75;98087.03;8386326;28;20236;-65
2021/07/22 18:46:27;;;;;;;13.73;5.40;;;;;;;26.03;39.89;98088.19;8370565;28;20216;-65
2021/07/22 18:50:30;;;;;;;11.00;6.00;;;;;;;25.93;40.36;98089.16;8349343;28;20286;-65
2021/07/22 18:54:33;;;;;;;14.67;6.20;;;;;;;25.84;40.96;98082.16;8352685;28;20207;-66
2021/07/22 18:58:36;;;;;;;13.83;6.37;;;;;;;25.80;41.31;98080.81;8352884;28;20202;-65
2021/07/22 19:02:42;;;;;;;17.63;6.30;;;;;;;25.71;41.28;98081.78;8352787;28;20244;-65